Latest Coastal Weather Observations for Walpole North

IDW60701

Issued at 12:15 pm WST Friday 28 November 2014 (issued every 10 minutes, with the page automatically refreshed every 10 minutes)

About coastal observations | Map of coastal stations | Coastal observations for WA | Marine services | Other Formats
Station Details ID: 009998 Name: NORTH WALPOLE Lat: -34.95 Lon: 116.72 Height: 73.0 m
Data from the previous 72 hours. | See also: Recent months at Walpole North
Date/Time
WST
Temp

°C
Wind Pressure Rain
since 9am
mm
Weather Cloud Vis
km
Sea
Height
m
Swell
Dir
 
Speed
knots
Gust
knots
hPa Trend Height
m
Period
s
Dir
28/12:00pm 21.1 S 5 9 1009.4 - 0.2 - - - - - - -
28/11:30am 21.7 SSE 5 9 1009.5 - 0.2 - - - - - - -
28/11:00am 22.7 SSE 5 10 1009.4 - 0.2 - - - - - - -
28/10:30am 22.8 WSW 4 7 1009.4 - 0.2 - - - - - - -
28/10:00am 22.8 WSW 7 9 1009.5 - 0.2 - - - - - - -
28/09:30am 22.1 SW 6 11 1009.4 - 0.2 - - - - - - -
28/09:00am 21.6 W 6 9 1009.2 - 2.0 - - - - - - -
28/08:30am 19.6 SW 3 7 1009.5 - 2.0 - - - - - - -
28/08:00am 19.4 CALM 0 0 1009.7 - 2.0 - - - - - - -
28/07:30am 18.0 CALM 0 0 1009.9 - 2.0 - - - - - - -
28/07:00am 16.3 CALM 0 0 1009.8 - 2.0 - - - - - - -
28/06:30am 15.5 CALM 0 0 1010.0 - 2.0 - - - - - - -
28/06:00am 14.9 CALM 0 0 1010.3 - 2.0 - - - - - - -
28/05:30am 14.5 CALM 0 0 1009.9 - 2.0 - - - - - - -
28/05:00am 13.0 CALM 0 0 1009.7 - 2.0 - - - - - - -
28/04:30am 14.0 CALM 0 0 1009.7 - 2.0 - - - - - - -
28/04:00am 14.8 CALM 0 0 1009.6 - 2.0 - - - - - - -
28/03:30am 15.1 CALM 0 0 1009.3 - 2.0 - - - - - - -
28/03:00am 14.9 E 2 4 1008.7 - 2.0 - - - - - - -
28/02:30am 14.6 CALM 0 0 1008.8 - 2.0 - - - - - - -
28/02:00am 14.7 CALM 0 0 1008.8 - 2.0 - - - - - - -
28/01:30am 15.2 CALM 0 0 1008.6 - 2.0 - - - - - - -
28/01:00am 15.3 CALM 0 0 1008.8 - 2.0 - - - - - - -
28/12:30am 16.0 CALM 0 0 1009.0 - 1.8 - - - - - - -
28/12:00am 16.5 CALM 0 0 1009.2 - 1.8 - - - - - - -
 
Date/Time
WST
Temp

°C
Wind Pressure Rain
since 9am
mm
Weather Cloud Vis
km
Sea
Height
m
Swell
Dir
 
Speed
knots
Gust
knots
hPa Trend Height
m
Period
s
Dir
27/11:30pm 16.8 CALM 0 0 1009.6 - 1.8 - - - - - - -
27/11:00pm 16.7 CALM 0 0 1010.0 - 1.8 - - - - - - -
27/10:30pm 17.1 CALM 0 0 1010.3 - 1.8 - - - - - - -
27/10:00pm 17.0 CALM 0 0 1010.5 - 1.8 - - - - - - -
27/09:30pm 17.3 CALM 0 0 1010.6 - 1.8 - - - - - - -
27/09:00pm 17.7 CALM 0 0 1010.8 - 1.8 - - - - - - -
27/08:30pm 18.2 E 2 4 1010.6 - 1.8 - - - - - - -
27/08:00pm 18.0 CALM 0 0 1010.6 - 1.8 - - - - - - -
27/07:30pm 18.6 E 4 6 1010.6 - 1.8 - - - - - - -
27/07:00pm 19.4 E 4 6 1011.1 - 1.8 - - - - - - -
27/06:30pm 19.5 ESE 7 10 1011.1 - 1.8 - - - - - - -
27/06:00pm 19.3 SE 6 9 1010.6 - 1.8 - - - - - - -
27/05:30pm 19.9 S 5 10 1010.2 - 1.8 - - - - - - -
27/05:00pm 20.3 SSW 5 7 1010.4 - 1.8 - - - - - - -
27/04:30pm 20.7 CALM 0 3 1010.8 - 1.8 - - - - - - -
27/04:00pm 20.2 ENE 7 12 1010.3 - 1.8 - - - - - - -
27/03:30pm 20.2 ENE 4 6 1010.9 - 1.8 - - - - - - -
27/03:00pm 19.9 N 6 8 1011.4 - 1.8 Recent precip. - - - - - -
27/02:30pm 19.9 N 6 9 1011.4 - 1.6 - - - - - - -
27/02:00pm 19.8 N 4 6 1011.5 - 1.4 - - - - - - -
27/01:30pm 20.0 NNW 8 13 1011.6 - 0.8 - - - - - - -
27/01:00pm 20.0 NNW 4 7 1011.9 - 0.4 - - - - - - -
27/12:30pm 20.5 NNW 1 5 1012.0 - 0.0 - - - - - - -
27/12:00pm 20.6 N 5 8 1011.9 - 0.0 - - - - - - -
27/11:30am 21.0 N 6 10 1012.1 - 0.0 - - - - - - -
27/11:00am 21.4 N 7 13 1012.2 - 0.0 - - - - - - -
27/10:30am 21.8 N 6 11 1012.5 - 0.0 - - - - - - -
27/10:00am 22.2 NE 7 12 1012.5 - 0.0 - - - - - - -
27/09:30am 21.8 NE 6 10 1012.5 - 0.0 - - - - - - -
27/09:00am 21.5 NE 3 7 1012.5 - 4.6 - - - - - - -
27/08:30am 21.1 ENE 3 7 1012.4 - 4.6 - - - - - - -
27/08:00am 19.5 ENE 5 7 1012.4 - 4.6 - - - - - - -
27/07:30am 18.8 E 7 11 1012.6 - 4.6 - - - - - - -
27/07:00am 18.1 SE 4 6 1012.7 - 4.6 - - - - - - -
27/06:30am 17.9 ESE 6 10 1012.7 - 4.6 - - - - - - -
27/06:00am 17.6 ESE 4 8 1012.6 - 4.6 Recent precip. - - - - - -
27/05:30am 17.5 ESE 7 11 1012.5 - 3.8 - - - - - - -
27/05:00am 17.4 ESE 7 11 1012.5 - 3.2 - - - - - - -
27/04:30am 17.4 ESE 7 11 1012.2 - 3.2 - - - - - - -
27/04:00am 17.2 ESE 5 7 1012.4 - 2.8 - - - - - - -
27/03:30am 16.8 ESE 5 8 1012.4 - 2.8 - - - - - - -
27/03:00am 16.5 CALM 0 0 1012.5 - 2.8 - - - - - - -
27/02:30am 16.4 CALM 0 0 1012.1 - 2.8 - - - - - - -
27/02:00am 16.5 E 1 5 1012.9 - 2.8 - - - - - - -
27/01:30am 16.5 NE 6 10 1012.8 - 2.6 - - - - - - -
27/01:00am 16.5 CALM 0 5 1012.8 - 2.4 - - - - - - -
27/12:30am 16.5 SE 1 5 1012.6 - 2.2 - - - - - - -
27/12:00am 16.6 ESE 5 7 1013.6 - 1.6 Rain - - - - - -
 
Date/Time
WST
Temp

°C
Wind Pressure Rain
since 9am
mm
Weather Cloud Vis
km
Sea
Height
m
Swell
Dir
 
Speed
knots
Gust
knots
hPa Trend Height
m
Period
s
Dir
26/11:30pm 16.8 CALM 0 0 1014.0 - 1.2 - - - - - - -
26/11:00pm 16.9 CALM 0 0 1014.5 - 1.0 - - - - - - -
26/10:30pm 17.2 CALM 0 0 1015.1 - 1.0 - - - - - - -
26/10:00pm 17.6 CALM 0 0 1015.3 - 0.8 - - - - - - -
26/09:30pm 17.5 CALM 0 0 1015.9 - 0.2 - - - - - - -
26/09:00pm 18.3 CALM 0 0 1015.0 - 0.0 - - - - - - -
26/08:30pm 18.3 CALM 0 0 1014.1 - 0.0 - - - - - - -
26/08:00pm 18.4 CALM 0 0 1013.7 - 0.0 - - - - - - -
26/07:30pm 18.7 CALM 0 0 1013.5 - 0.0 - - - - - - -
26/07:00pm 19.1 CALM 0 0 1013.1 - 0.0 - - - - - - -
26/06:30pm 19.6 ESE 1 5 1012.8 - 0.0 - - - - - - -
26/06:00pm 20.9 SE 5 11 1012.5 - 0.0 - - - - - - -
26/05:30pm 21.2 ESE 9 13 1012.3 - 0.0 - - - - - - -
26/05:00pm 21.5 ESE 7 10 1012.1 - 0.0 - - - - - - -
26/04:30pm 21.6 SE 7 10 1012.3 - 0.0 - - - - - - -
26/04:00pm 21.6 ESE 7 10 1012.4 - 0.0 - - - - - - -
26/03:30pm 22.9 SE 9 14 1012.4 - 0.0 - - - - - - -
26/03:00pm 22.6 SE 9 15 1012.7 - 0.0 - - - - - - -
26/02:30pm 25.6 SE 10 15 1012.8 - 0.0 - - - - - - -
26/02:00pm 25.3 ESE 9 13 1012.9 - 0.0 - - - - - - -
26/01:30pm 25.8 SE 11 16 1013.0 - 0.0 - - - - - - -
26/01:00pm 28.5 ENE 11 17 1013.2 - 0.0 - - - - - - -
26/12:30pm 28.7 ENE 10 17 1013.5 - 0.0 - - - - - - -
26/12:00pm 27.5 E 11 17 1013.8 - 0.0 - - - - - - -
26/11:30am 26.4 E 10 18 1014.2 - 0.0 - - - - - - -
26/11:00am 24.9 ENE 10 16 1014.8 - 0.0 - - - - - - -
26/10:30am 25.1 E 12 17 1015.4 - 0.0 - - - - - - -
26/10:00am 23.4 E 12 17 1016.0 - 0.0 - - - - - - -
26/09:30am 22.5 E 11 15 1016.7 - 0.0 - - - - - - -
26/09:00am 21.2 ENE 9 15 1017.2 - 0.0 - - - - - - -
26/08:30am 20.1 ENE 10 16 1017.7 - 0.0 - - - - - - -
26/08:00am 18.1 ENE 11 15 1017.9 - 0.0 - - - - - - -
26/07:30am 17.1 ENE 8 15 1018.1 - 0.0 - - - - - - -
26/07:00am 15.1 ENE 8 14 1018.4 - 0.0 - - - - - - -
26/06:30am 15.1 ENE 8 15 1018.4 - 0.0 - - - - - - -
26/06:00am 14.3 ENE 9 16 1018.4 - 0.0 - - - - - - -
26/05:30am 13.3 E 6 13 1018.3 - 0.0 - - - - - - -
26/05:00am 13.0 E 6 9 1018.2 - 0.0 - - - - - - -
26/04:30am 12.9 E 7 13 1018.1 - 0.0 - - - - - - -
26/04:00am 12.7 E 7 13 1018.0 - 0.0 - - - - - - -
26/03:30am 12.8 E 8 13 1017.8 - 0.0 - - - - - - -
26/03:00am 12.5 E 6 11 1017.9 - 0.0 - - - - - - -
26/02:30am 12.9 E 7 13 1018.2 - 0.0 - - - - - - -
26/02:00am 13.2 E 8 13 1018.3 - 0.0 - - - - - - -
26/01:30am 13.4 E 9 15 1018.6 - 0.0 - - - - - - -
26/01:00am 13.5 E 9 15 1018.8 - 0.0 - - - - - - -
26/12:30am 13.6 E 8 13 1019.3 - 0.0 - - - - - - -
26/12:00am 13.8 E 9 14 1019.6 - 0.0 - - - - - - -
 
Date/Time
WST
Temp

°C
Wind Pressure Rain
since 9am
mm
Weather Cloud Vis
km
Sea
Height
m
Swell
Dir
 
Speed
knots
Gust
knots
hPa Trend Height
m
Period
s
Dir
25/11:30pm 13.9 E 10 16 1019.8 - 0.0 - - - - - - -
25/11:00pm 13.9 E 10 16 1019.9 - 0.0 - - - - - - -
25/10:30pm 14.1 E 11 18 1020.1 - 0.0 - - - - - - -
25/10:00pm 14.1 E 9 14 1020.1 - 0.0 - - - - - - -
25/09:30pm 14.3 E 8 14 1020.0 - 0.0 - - - - - - -
25/09:00pm 14.7 E 8 15 1020.2 - 0.0 - - - - - - -
25/08:30pm 15.1 E 9 15 1020.2 - 0.0 - - - - - - -
25/08:00pm 15.1 ESE 8 11 1020.1 - 0.0 - - - - - - -
25/07:30pm 15.4 E 8 11 1020.1 - 0.0 - - - - - - -
25/07:00pm 15.9 E 10 16 1020.1 - 0.0 - - - - - - -
25/06:30pm 16.5 ESE 10 13 1020.2 - 0.0 - - - - - - -
25/06:00pm 17.2 ESE 12 18 1020.2 - 0.0 - - - - - - -
25/05:30pm 17.7 SE 11 17 1020.1 - 0.0 - - - - - - -
25/05:00pm 18.5 ESE 13 19 1020.2 - 0.0 - - - - - - -
25/04:30pm 19.2 SE 12 19 1020.2 - 0.0 - - - - - - -
25/04:00pm 19.6 SE 14 18 1020.3 - 0.0 - - - - - - -
25/03:30pm 20.0 SE 13 21 1020.3 - 0.0 - - - - - - -
25/03:00pm 20.3 SE 12 20 1020.5 - 0.0 - - - - - - -
25/02:30pm 21.1 SE 12 17 1020.5 - 0.0 - - - - - - -
25/02:00pm 21.3 SE 11 17 1020.7 - 0.0 - - - - - - -
25/01:30pm 20.4 ESE 11 17 1020.9 - 0.0 - - - - - - -
25/01:00pm 20.6 SE 11 17 1021.1 - 0.0 - - - - - - -
25/12:30pm 21.3 SE 11 15 1021.3 - 0.0 - - - - - - -

Other Formats:

Comma delimited format used in spreadsheet applications
http://www.bom.gov.au/fwo/IDW60701/IDW60701.95647.axf

JavaScript Object Notation format (JSON) in row-major order
http://www.bom.gov.au/fwo/IDW60701/IDW60701.95647.json